sensor_id;sensor_type;location;lat;lon;timestamp;P1;durP1;ratioP1;P2;durP2;ratioP2
76591;SDS011;65481;47.600;19.682;2024-02-21T00:01:07;5.45;;;2.47;;
76591;SDS011;65481;47.600;19.682;2024-02-21T00:06:26;3.05;;;2.38;;
76591;SDS011;65481;47.600;19.682;2024-02-21T00:11:46;6.50;;;2.60;;
76591;SDS011;65481;47.600;19.682;2024-02-21T00:17:05;4.47;;;2.30;;
76591;SDS011;65481;47.600;19.682;2024-02-21T00:22:43;6.93;;;3.08;;
76591;SDS011;65481;47.600;19.682;2024-02-21T00:28:03;4.70;;;3.08;;
76591;SDS011;65481;47.600;19.682;2024-02-21T00:33:22;4.97;;;2.47;;
76591;SDS011;65481;47.600;19.682;2024-02-21T00:38:41;6.65;;;3.10;;
76591;SDS011;65481;47.600;19.682;2024-02-21T00:44:00;4.07;;;2.22;;
76591;SDS011;65481;47.600;19.682;2024-02-21T00:49:19;3.33;;;2.00;;
76591;SDS011;65481;47.600;19.682;2024-02-21T00:54:38;4.05;;;2.17;;
76591;SDS011;65481;47.600;19.682;2024-02-21T00:59:58;4.28;;;2.47;;
76591;SDS011;65481;47.600;19.682;2024-02-21T01:05:17;6.57;;;1.88;;
76591;SDS011;65481;47.600;19.682;2024-02-21T01:10:35;4.38;;;2.38;;
76591;SDS011;65481;47.600;19.682;2024-02-21T01:15:54;3.38;;;2.05;;
76591;SDS011;65481;47.600;19.682;2024-02-21T01:21:16;3.63;;;2.03;;
76591;SDS011;65481;47.600;19.682;2024-02-21T01:26:35;4.85;;;2.38;;
76591;SDS011;65481;47.600;19.682;2024-02-21T01:31:54;5.97;;;2.50;;
76591;SDS011;65481;47.600;19.682;2024-02-21T01:37:14;5.57;;;3.00;;
76591;SDS011;65481;47.600;19.682;2024-02-21T01:42:33;4.03;;;2.53;;
76591;SDS011;65481;47.600;19.682;2024-02-21T01:47:57;5.10;;;2.83;;
76591;SDS011;65481;47.600;19.682;2024-02-21T01:53:17;3.55;;;2.78;;
76591;SDS011;65481;47.600;19.682;2024-02-21T01:58:39;5.68;;;2.70;;
76591;SDS011;65481;47.600;19.682;2024-02-21T02:04:01;4.13;;;2.47;;
76591;SDS011;65481;47.600;19.682;2024-02-21T02:09:21;6.50;;;3.95;;
76591;SDS011;65481;47.600;19.682;2024-02-21T02:14:40;4.57;;;2.90;;
76591;SDS011;65481;47.600;19.682;2024-02-21T02:19:59;3.67;;;2.10;;
76591;SDS011;65481;47.600;19.682;2024-02-21T02:25:18;6.00;;;2.95;;
76591;SDS011;65481;47.600;19.682;2024-02-21T02:30:37;6.43;;;2.63;;
76591;SDS011;65481;47.600;19.682;2024-02-21T02:35:57;7.40;;;2.95;;
76591;SDS011;65481;47.600;19.682;2024-02-21T02:41:17;4.13;;;2.72;;
76591;SDS011;65481;47.600;19.682;2024-02-21T02:46:36;4.25;;;2.33;;
76591;SDS011;65481;47.600;19.682;2024-02-21T02:51:55;3.90;;;2.53;;
76591;SDS011;65481;47.600;19.682;2024-02-21T02:57:14;3.67;;;2.40;;
76591;SDS011;65481;47.600;19.682;2024-02-21T03:02:33;5.53;;;2.72;;
76591;SDS011;65481;47.600;19.682;2024-02-21T03:07:53;6.85;;;2.85;;
76591;SDS011;65481;47.600;19.682;2024-02-21T03:13:12;6.57;;;2.88;;
76591;SDS011;65481;47.600;19.682;2024-02-21T03:18:31;5.40;;;2.90;;
76591;SDS011;65481;47.600;19.682;2024-02-21T03:23:50;3.92;;;2.45;;
76591;SDS011;65481;47.600;19.682;2024-02-21T03:29:10;3.63;;;2.33;;
76591;SDS011;65481;47.600;19.682;2024-02-21T03:34:30;5.93;;;2.60;;
76591;SDS011;65481;47.600;19.682;2024-02-21T03:39:49;4.93;;;2.30;;
76591;SDS011;65481;47.600;19.682;2024-02-21T03:45:08;4.28;;;2.25;;
76591;SDS011;65481;47.600;19.682;2024-02-21T03:50:28;10.18;;;2.50;;
76591;SDS011;65481;47.600;19.682;2024-02-21T03:55:47;6.28;;;2.35;;
76591;SDS011;65481;47.600;19.682;2024-02-21T04:01:06;5.95;;;2.05;;
76591;SDS011;65481;47.600;19.682;2024-02-21T04:06:07;4.43;;;1.92;;
76591;SDS011;65481;47.600;19.682;2024-02-21T04:11:07;3.63;;;2.00;;
76591;SDS011;65481;47.600;19.682;2024-02-21T04:16:08;4.30;;;1.75;;
76591;SDS011;65481;47.600;19.682;2024-02-21T04:21:09;3.28;;;1.65;;
76591;SDS011;65481;47.600;19.682;2024-02-21T04:26:10;1.75;;;1.20;;
76591;SDS011;65481;47.600;19.682;2024-02-21T04:31:11;3.47;;;1.60;;
76591;SDS011;65481;47.600;19.682;2024-02-21T04:36:11;4.38;;;1.90;;
76591;SDS011;65481;47.600;19.682;2024-02-21T04:41:12;4.38;;;1.90;;
76591;SDS011;65481;47.600;19.682;2024-02-21T04:46:13;4.30;;;1.80;;
76591;SDS011;65481;47.600;19.682;2024-02-21T04:51:16;3.63;;;1.73;;
76591;SDS011;65481;47.600;19.682;2024-02-21T04:56:17;3.38;;;2.15;;
76591;SDS011;65481;47.600;19.682;2024-02-21T05:01:20;3.38;;;1.75;;
76591;SDS011;65481;47.600;19.682;2024-02-21T05:06:20;5.95;;;1.60;;
76591;SDS011;65481;47.600;19.682;2024-02-21T05:11:21;3.58;;;1.90;;
76591;SDS011;65481;47.600;19.682;2024-02-21T05:16:22;2.67;;;1.55;;
76591;SDS011;65481;47.600;19.682;2024-02-21T05:21:23;10.88;;;2.85;;
76591;SDS011;65481;47.600;19.682;2024-02-21T05:26:24;10.10;;;3.20;;
76591;SDS011;65481;47.600;19.682;2024-02-21T05:31:25;4.60;;;2.50;;
76591;SDS011;65481;47.600;19.682;2024-02-21T05:36:26;8.15;;;2.40;;
76591;SDS011;65481;47.600;19.682;2024-02-21T05:41:28;2.75;;;1.60;;
76591;SDS011;65481;47.600;19.682;2024-02-21T05:46:29;4.15;;;1.77;;
76591;SDS011;65481;47.600;19.682;2024-02-21T05:51:33;3.90;;;1.92;;
76591;SDS011;65481;47.600;19.682;2024-02-21T06:23:22;32.17;;;14.35;;
76591;SDS011;65481;47.600;19.682;2024-02-21T06:28:52;7.30;;;3.60;;
76591;SDS011;65481;47.600;19.682;2024-02-21T06:34:22;3.00;;;1.75;;
76591;SDS011;65481;47.600;19.682;2024-02-21T06:40:01;7.45;;;3.70;;
76591;SDS011;65481;47.600;19.682;2024-02-21T06:58:18;15.77;;;5.20;;
76591;SDS011;65481;47.600;19.682;2024-02-21T13:36:51;4.93;;;1.40;;
76591;SDS011;65481;47.600;19.682;2024-02-21T13:42:56;2.63;;;1.20;;
76591;SDS011;65481;47.600;19.682;2024-02-21T14:01:11;4.55;;;1.60;;
76591;SDS011;65481;47.600;19.682;2024-02-21T14:06:53;4.43;;;1.90;;
76591;SDS011;65481;47.600;19.682;2024-02-21T14:25:42;8.00;;;2.10;;
76591;SDS011;65481;47.600;19.682;2024-02-21T14:37:50;5.57;;;1.50;;
76591;SDS011;65481;47.600;19.682;2024-02-21T14:55:58;2.85;;;1.77;;
76591;SDS011;65481;47.600;19.682;2024-02-21T15:02:06;4.28;;;1.50;;
76591;SDS011;65481;47.600;19.682;2024-02-21T15:07:59;6.13;;;1.55;;
76591;SDS011;65481;47.600;19.682;2024-02-21T15:13:41;3.95;;;1.55;;
76591;SDS011;65481;47.600;19.682;2024-02-21T15:19:29;4.80;;;1.67;;
76591;SDS011;65481;47.600;19.682;2024-02-21T15:25:05;4.45;;;1.70;;
76591;SDS011;65481;47.600;19.682;2024-02-21T15:30:34;3.22;;;2.00;;
76591;SDS011;65481;47.600;19.682;2024-02-21T15:36:10;5.75;;;2.95;;
76591;SDS011;65481;47.600;19.682;2024-02-21T15:41:36;7.85;;;3.97;;
76591;SDS011;65481;47.600;19.682;2024-02-21T15:47:17;5.25;;;2.63;;
76591;SDS011;65481;47.600;19.682;2024-02-21T15:52:44;6.70;;;2.78;;
76591;SDS011;65481;47.600;19.682;2024-02-21T15:58:16;4.97;;;2.13;;
76591;SDS011;65481;47.600;19.682;2024-02-21T16:03:51;4.18;;;2.30;;
76591;SDS011;65481;47.600;19.682;2024-02-21T16:09:23;5.57;;;2.45;;
76591;SDS011;65481;47.600;19.682;2024-02-21T16:15:02;5.68;;;2.47;;
76591;SDS011;65481;47.600;19.682;2024-02-21T16:20:35;5.80;;;2.67;;
76591;SDS011;65481;47.600;19.682;2024-02-21T16:26:05;10.15;;;3.70;;
76591;SDS011;65481;47.600;19.682;2024-02-21T16:31:35;4.13;;;2.45;;
76591;SDS011;65481;47.600;19.682;2024-02-21T16:37:06;6.00;;;3.03;;
76591;SDS011;65481;47.600;19.682;2024-02-21T16:42:28;5.00;;;1.98;;
76591;SDS011;65481;47.600;19.682;2024-02-21T16:47:55;6.47;;;2.10;;
76591;SDS011;65481;47.600;19.682;2024-02-21T16:53:14;7.78;;;2.63;;
76591;SDS011;65481;47.600;19.682;2024-02-21T16:58:34;4.43;;;1.95;;
76591;SDS011;65481;47.600;19.682;2024-02-21T17:04:04;6.35;;;2.33;;
76591;SDS011;65481;47.600;19.682;2024-02-21T17:09:28;16.23;;;7.93;;
76591;SDS011;65481;47.600;19.682;2024-02-21T17:14:57;11.93;;;5.68;;
76591;SDS011;65481;47.600;19.682;2024-02-21T17:20:26;13.50;;;7.75;;
76591;SDS011;65481;47.600;19.682;2024-02-21T17:25:51;43.60;;;15.52;;
76591;SDS011;65481;47.600;19.682;2024-02-21T17:31:13;17.42;;;8.13;;
76591;SDS011;65481;47.600;19.682;2024-02-21T17:36:45;8.40;;;3.85;;
76591;SDS011;65481;47.600;19.682;2024-02-21T17:42:04;7.22;;;2.67;;
76591;SDS011;65481;47.600;19.682;2024-02-21T17:47:24;5.78;;;2.60;;
76591;SDS011;65481;47.600;19.682;2024-02-21T17:52:49;4.90;;;2.78;;
76591;SDS011;65481;47.600;19.682;2024-02-21T17:58:08;8.45;;;3.78;;
76591;SDS011;65481;47.600;19.682;2024-02-21T18:03:27;8.27;;;3.42;;
76591;SDS011;65481;47.600;19.682;2024-02-21T18:08:48;8.23;;;4.30;;
76591;SDS011;65481;47.600;19.682;2024-02-21T18:14:10;6.75;;;3.67;;
76591;SDS011;65481;47.600;19.682;2024-02-21T18:19:33;5.82;;;4.07;;
76591;SDS011;65481;47.600;19.682;2024-02-21T18:24:55;8.88;;;4.63;;
76591;SDS011;65481;47.600;19.682;2024-02-21T18:30:17;10.70;;;6.00;;
76591;SDS011;65481;47.600;19.682;2024-02-21T18:35:36;23.50;;;10.25;;
76591;SDS011;65481;47.600;19.682;2024-02-21T18:40:56;22.40;;;11.50;;
76591;SDS011;65481;47.600;19.682;2024-02-21T18:46:15;32.72;;;11.85;;
76591;SDS011;65481;47.600;19.682;2024-02-21T18:51:34;28.83;;;11.65;;
76591;SDS011;65481;47.600;19.682;2024-02-21T18:56:53;12.27;;;6.05;;
76591;SDS011;65481;47.600;19.682;2024-02-21T19:02:15;15.35;;;6.25;;
76591;SDS011;65481;47.600;19.682;2024-02-21T19:07:34;24.88;;;11.63;;
76591;SDS011;65481;47.600;19.682;2024-02-21T19:12:54;20.00;;;10.30;;
76591;SDS011;65481;47.600;19.682;2024-02-21T19:18:13;17.77;;;11.48;;
76591;SDS011;65481;47.600;19.682;2024-02-21T19:23:32;28.55;;;13.50;;
76591;SDS011;65481;47.600;19.682;2024-02-21T19:29:01;26.33;;;11.82;;
76591;SDS011;65481;47.600;19.682;2024-02-21T19:34:21;24.98;;;12.18;;
76591;SDS011;65481;47.600;19.682;2024-02-21T19:39:42;29.35;;;10.88;;
76591;SDS011;65481;47.600;19.682;2024-02-21T19:45:01;21.55;;;10.25;;
76591;SDS011;65481;47.600;19.682;2024-02-21T19:50:22;27.83;;;11.15;;
76591;SDS011;65481;47.600;19.682;2024-02-21T19:55:48;23.05;;;10.93;;
76591;SDS011;65481;47.600;19.682;2024-02-21T20:01:07;18.98;;;9.52;;
76591;SDS011;65481;47.600;19.682;2024-02-21T20:06:26;16.83;;;8.38;;
76591;SDS011;65481;47.600;19.682;2024-02-21T20:11:45;19.55;;;9.18;;
76591;SDS011;65481;47.600;19.682;2024-02-21T20:17:05;26.70;;;9.40;;
76591;SDS011;65481;47.600;19.682;2024-02-21T20:22:25;21.05;;;9.70;;
76591;SDS011;65481;47.600;19.682;2024-02-21T20:27:45;15.18;;;8.07;;
76591;SDS011;65481;47.600;19.682;2024-02-21T20:33:05;17.27;;;7.95;;
76591;SDS011;65481;47.600;19.682;2024-02-21T20:38:25;19.88;;;8.02;;
76591;SDS011;65481;47.600;19.682;2024-02-21T20:43:45;17.80;;;6.82;;
76591;SDS011;65481;47.600;19.682;2024-02-21T20:49:07;18.58;;;7.65;;
76591;SDS011;65481;47.600;19.682;2024-02-21T20:54:26;15.27;;;7.10;;
76591;SDS011;65481;47.600;19.682;2024-02-21T20:59:45;12.25;;;6.35;;
76591;SDS011;65481;47.600;19.682;2024-02-21T21:05:04;13.45;;;7.07;;
76591;SDS011;65481;47.600;19.682;2024-02-21T21:10:25;10.98;;;6.32;;
76591;SDS011;65481;47.600;19.682;2024-02-21T21:15:44;12.02;;;6.35;;
76591;SDS011;65481;47.600;19.682;2024-02-21T21:21:07;13.40;;;5.88;;
76591;SDS011;65481;47.600;19.682;2024-02-21T21:26:26;11.05;;;5.43;;
76591;SDS011;65481;47.600;19.682;2024-02-21T21:31:45;11.15;;;5.80;;
76591;SDS011;65481;47.600;19.682;2024-02-21T21:37:06;13.98;;;5.28;;
76591;SDS011;65481;47.600;19.682;2024-02-21T21:42:25;11.18;;;5.43;;
76591;SDS011;65481;47.600;19.682;2024-02-21T21:47:44;11.73;;;4.93;;
76591;SDS011;65481;47.600;19.682;2024-02-21T21:53:04;9.48;;;5.20;;
76591;SDS011;65481;47.600;19.682;2024-02-21T21:58:24;14.35;;;5.57;;
76591;SDS011;65481;47.600;19.682;2024-02-21T22:03:43;13.55;;;5.55;;
76591;SDS011;65481;47.600;19.682;2024-02-21T22:09:02;9.48;;;5.20;;
76591;SDS011;65481;47.600;19.682;2024-02-21T22:14:25;10.50;;;5.30;;
76591;SDS011;65481;47.600;19.682;2024-02-21T22:19:45;9.90;;;5.03;;
76591;SDS011;65481;47.600;19.682;2024-02-21T22:25:04;11.82;;;4.88;;
76591;SDS011;65481;47.600;19.682;2024-02-21T22:30:24;11.20;;;4.68;;
76591;SDS011;65481;47.600;19.682;2024-02-21T22:35:44;9.20;;;5.03;;
76591;SDS011;65481;47.600;19.682;2024-02-21T22:41:03;8.38;;;5.10;;
76591;SDS011;65481;47.600;19.682;2024-02-21T22:46:22;10.68;;;5.15;;
76591;SDS011;65481;47.600;19.682;2024-02-21T22:51:42;8.75;;;4.90;;
76591;SDS011;65481;47.600;19.682;2024-02-21T22:57:02;7.95;;;4.82;;
76591;SDS011;65481;47.600;19.682;2024-02-21T23:02:21;8.90;;;5.38;;
76591;SDS011;65481;47.600;19.682;2024-02-21T23:07:43;7.68;;;4.88;;
76591;SDS011;65481;47.600;19.682;2024-02-21T23:13:03;12.02;;;4.78;;
76591;SDS011;65481;47.600;19.682;2024-02-21T23:18:22;10.93;;;5.13;;
76591;SDS011;65481;47.600;19.682;2024-02-21T23:23:43;11.88;;;6.25;;
76591;SDS011;65481;47.600;19.682;2024-02-21T23:29:03;11.25;;;6.28;;
76591;SDS011;65481;47.600;19.682;2024-02-21T23:34:22;15.00;;;6.55;;
76591;SDS011;65481;47.600;19.682;2024-02-21T23:39:42;11.30;;;5.13;;
76591;SDS011;65481;47.600;19.682;2024-02-21T23:45:04;7.78;;;4.68;;
76591;SDS011;65481;47.600;19.682;2024-02-21T23:50:29;12.15;;;5.60;;
76591;SDS011;65481;47.600;19.682;2024-02-21T23:55:49;11.27;;;5.03;;
